createdAt,value
2022-10-04T00:01:00.885Z,9.32
2022-10-04T00:04:13.329Z,9.40
2022-10-04T00:07:24.408Z,9.42
2022-10-04T00:10:30.543Z,9.41
2022-10-04T00:13:36.077Z,9.39
2022-10-04T00:16:41.024Z,9.37
2022-10-04T00:19:47.167Z,9.36
2022-10-04T00:23:31.433Z,9.34
2022-10-04T00:26:33.178Z,9.32
2022-10-04T00:29:37.647Z,9.29
2022-10-04T00:32:39.610Z,9.27
2022-10-04T00:35:49.625Z,9.26
2022-10-04T00:39:12.192Z,9.22
2022-10-04T00:42:32.365Z,9.21
2022-10-04T00:45:39.747Z,9.20
2022-10-04T00:48:52.947Z,9.22
2022-10-04T00:52:07.926Z,9.24
2022-10-04T00:55:18.398Z,9.23
2022-10-04T00:58:49.990Z,9.23
2022-10-04T01:01:56.497Z,9.20
2022-10-04T01:05:06.697Z,9.24
2022-10-04T01:08:18.805Z,9.28
2022-10-04T01:11:28.813Z,9.34
2022-10-04T01:14:50.835Z,9.40
2022-10-04T01:18:20.256Z,9.43
2022-10-04T01:21:31.175Z,9.46
2022-10-04T01:24:46.131Z,9.48
2022-10-04T01:27:47.857Z,9.49
2022-10-04T01:30:49.718Z,9.51
2022-10-04T01:33:51.442Z,9.52
2022-10-04T01:36:56.235Z,9.54
2022-10-04T01:39:58.725Z,9.54
2022-10-04T01:43:10.694Z,9.54
2022-10-04T01:46:26.305Z,9.56
2022-10-04T01:49:32.561Z,9.56
2022-10-04T01:52:39.959Z,9.57
2022-10-04T01:55:45.596Z,9.57
2022-10-04T01:59:05.044Z,9.57
2022-10-04T02:02:16.884Z,9.60
2022-10-04T02:05:29.912Z,9.59
2022-10-04T02:08:35.815Z,9.58
2022-10-04T02:11:41.363Z,9.56
2022-10-04T02:14:52.808Z,9.56
2022-10-04T02:17:57.072Z,9.56
2022-10-04T02:21:00.052Z,9.57
2022-10-04T02:24:02.004Z,9.58
2022-10-04T02:27:04.017Z,9.56
2022-10-04T02:30:13.166Z,9.56
2022-10-04T02:33:15.066Z,9.55
2022-10-04T02:36:18.289Z,9.56
2022-10-04T02:39:27.655Z,9.57
2022-10-04T02:42:41.828Z,9.59
2022-10-04T02:45:51.340Z,9.58
2022-10-04T02:48:59.512Z,9.57
2022-10-04T02:52:10.646Z,9.53
2022-10-04T02:55:19.472Z,9.46
2022-10-04T02:58:24.216Z,9.41
2022-10-04T03:01:36.235Z,9.37
2022-10-04T03:04:40.046Z,9.38
2022-10-04T03:07:42.889Z,9.43
2022-10-04T03:10:44.715Z,9.45
2022-10-04T03:13:53.827Z,9.48
2022-10-04T03:17:00.776Z,9.49
2022-10-04T03:20:05.748Z,9.50
2022-10-04T03:23:09.255Z,9.51
2022-10-04T03:26:43.518Z,9.51
2022-10-04T03:29:46.193Z,9.49
2022-10-04T03:32:49.458Z,9.50
2022-10-04T03:35:55.820Z,9.50
2022-10-04T03:38:58.723Z,9.52
2022-10-04T03:42:20.614Z,9.52
2022-10-04T03:45:23.770Z,9.52
2022-10-04T03:48:40.004Z,9.53
2022-10-04T03:51:46.714Z,9.55
2022-10-04T03:54:52.224Z,9.55
2022-10-04T03:57:54.024Z,9.56
2022-10-04T04:01:20.594Z,9.53
2022-10-04T04:04:50.362Z,9.49
2022-10-04T04:08:19.329Z,9.39
2022-10-04T04:11:31.087Z,9.30
2022-10-04T04:14:32.955Z,9.23
2022-10-04T04:17:43.035Z,9.16
2022-10-04T04:20:51.890Z,9.09
2022-10-04T04:24:05.487Z,9.04
2022-10-04T04:27:10.548Z,8.99
2022-10-04T04:30:17.047Z,8.99
2022-10-04T04:34:00.656Z,8.99
2022-10-04T04:37:04.870Z,9.00
2022-10-04T04:40:20.738Z,8.98
2022-10-04T04:43:27.444Z,8.98
2022-10-04T04:46:30.728Z,8.99
2022-10-04T04:49:33.657Z,8.99
2022-10-04T04:52:36.308Z,9.00
2022-10-04T04:56:04.219Z,8.98
2022-10-04T04:59:08.194Z,8.97
2022-10-04T05:02:31.582Z,8.97
2022-10-04T05:05:37.271Z,8.97
2022-10-04T05:08:41.543Z,8.98
2022-10-04T05:11:43.649Z,9.00
2022-10-04T05:14:49.410Z,9.00
2022-10-04T05:17:51.196Z,9.01
2022-10-04T05:20:54.568Z,9.01
2022-10-04T05:23:58.422Z,9.03
2022-10-04T05:27:14.257Z,9.04
2022-10-04T05:30:55.082Z,9.12
2022-10-04T05:34:23.410Z,9.11
2022-10-04T05:37:51.437Z,9.12
2022-10-04T05:41:08.200Z,9.14
2022-10-04T05:44:47.171Z,9.17
2022-10-04T05:47:51.909Z,9.18
2022-10-04T05:50:53.768Z,9.17
2022-10-04T05:53:59.986Z,9.17
2022-10-04T05:57:10.607Z,9.17
2022-10-04T06:00:17.832Z,9.18
2022-10-04T06:03:32.609Z,9.19
2022-10-04T06:06:41.107Z,9.23
2022-10-04T06:09:56.581Z,9.30
2022-10-04T06:13:21.257Z,9.35
2022-10-04T06:16:41.940Z,9.45
2022-10-04T06:19:49.929Z,9.54
2022-10-04T06:22:59.040Z,9.61
2022-10-04T06:26:14.029Z,9.68
2022-10-04T06:29:23.569Z,9.74
2022-10-04T06:32:26.841Z,9.80
2022-10-04T06:35:50.141Z,9.83
2022-10-04T06:39:02.057Z,9.87
2022-10-04T06:42:34.102Z,9.93
2022-10-04T06:46:00.820Z,10.01
2022-10-04T06:49:31.130Z,10.06
2022-10-04T06:52:32.977Z,10.05
2022-10-04T06:55:52.907Z,10.12
2022-10-04T06:59:24.545Z,10.23
2022-10-04T07:02:40.691Z,10.40
2022-10-04T07:05:56.360Z,10.60
2022-10-04T07:09:03.341Z,10.76
2022-10-04T07:12:10.739Z,10.93
2022-10-04T07:15:25.048Z,11.13
2022-10-04T07:18:56.784Z,11.31
2022-10-04T07:22:28.089Z,11.45
2022-10-04T07:25:36.953Z,11.53
2022-10-04T07:29:03.588Z,11.58
2022-10-04T07:32:12.713Z,11.62
2022-10-04T07:35:25.045Z,11.65
2022-10-04T07:38:32.119Z,11.66
2022-10-04T07:41:56.207Z,11.63
2022-10-04T07:45:12.646Z,11.54
2022-10-04T07:48:24.788Z,11.44
2022-10-04T07:51:44.623Z,11.35
2022-10-04T07:55:13.612Z,11.27
2022-10-04T07:58:43.311Z,11.19
2022-10-04T08:02:07.402Z,11.13
2022-10-04T08:05:30.928Z,11.06
2022-10-04T08:08:32.676Z,11.04
2022-10-04T08:11:56.772Z,11.07
2022-10-04T08:15:13.767Z,11.09
2022-10-04T08:18:26.474Z,11.19
2022-10-04T08:21:39.388Z,11.36
2022-10-04T08:25:26.002Z,11.65
2022-10-04T08:28:57.504Z,11.93
2022-10-04T08:32:23.826Z,12.25
2022-10-04T08:35:38.371Z,12.56
2022-10-04T08:39:01.322Z,12.85
2022-10-04T08:42:21.718Z,12.99
2022-10-04T08:46:01.028Z,13.00
2022-10-04T08:49:47.713Z,12.83
2022-10-04T08:53:06.364Z,12.60
2022-10-04T08:57:04.751Z,12.39
2022-10-04T09:00:07.383Z,12.21
2022-10-04T09:03:45.637Z,12.08
2022-10-04T09:07:11.812Z,12.00
2022-10-04T09:10:47.949Z,11.97
2022-10-04T09:14:14.373Z,11.98
2022-10-04T09:17:47.467Z,12.01
2022-10-04T09:20:52.176Z,12.10
2022-10-04T09:24:21.059Z,12.23
2022-10-04T09:27:55.400Z,12.32
2022-10-04T09:31:28.679Z,12.43
2022-10-04T09:34:46.074Z,12.50
2022-10-04T09:38:05.826Z,12.55
2022-10-04T09:41:42.196Z,12.61
2022-10-04T09:45:35.330Z,12.76
2022-10-04T09:49:15.911Z,13.00
2022-10-04T09:53:00.708Z,13.23
2022-10-04T09:56:21.310Z,13.50
2022-10-04T09:59:37.422Z,13.90
2022-10-04T10:03:15.743Z,14.18
2022-10-04T10:06:44.652Z,14.12
2022-10-04T10:10:59.548Z,13.88
2022-10-04T10:14:28.664Z,13.46
2022-10-04T10:17:50.088Z,13.28
2022-10-04T10:21:00.967Z,13.30
2022-10-04T10:24:02.541Z,13.44
2022-10-04T10:27:35.216Z,13.64
2022-10-04T10:31:14.291Z,13.74
2022-10-04T10:34:25.272Z,13.91
2022-10-04T10:37:44.388Z,14.12
2022-10-04T10:41:32.462Z,14.37
2022-10-04T10:45:01.978Z,14.46
2022-10-04T10:48:14.397Z,14.46
2022-10-04T10:51:55.838Z,14.49
2022-10-04T10:55:34.715Z,14.53
2022-10-04T10:59:12.574Z,14.67
2022-10-04T11:02:48.625Z,14.85
2022-10-04T11:06:06.661Z,15.02
2022-10-04T11:09:41.029Z,15.08
2022-10-04T11:13:01.448Z,15.16
2022-10-04T11:16:07.209Z,15.19
2022-10-04T11:19:16.500Z,15.35
2022-10-04T11:22:50.741Z,15.40
2022-10-04T11:26:24.250Z,15.45
2022-10-04T11:29:44.289Z,15.45
2022-10-04T11:33:10.601Z,15.55
2022-10-04T11:36:27.537Z,15.66
2022-10-04T11:39:32.224Z,15.64
2022-10-04T11:43:04.045Z,15.75
2022-10-04T11:46:20.475Z,15.84
2022-10-04T11:49:57.640Z,15.96
2022-10-04T11:53:24.028Z,15.93
2022-10-04T11:56:38.307Z,15.88
2022-10-04T12:00:03.010Z,15.85
2022-10-04T12:03:33.237Z,15.99
2022-10-04T12:07:03.069Z,15.97
2022-10-04T12:10:14.050Z,15.98
2022-10-04T12:13:50.750Z,16.03
2022-10-04T12:17:10.282Z,16.01
2022-10-04T12:21:03.146Z,15.98
2022-10-04T12:24:23.314Z,16.06
2022-10-04T12:27:34.408Z,16.17
2022-10-04T12:31:12.123Z,16.21
2022-10-04T12:34:39.588Z,16.33
2022-10-04T12:37:46.987Z,16.43
2022-10-04T12:41:07.113Z,16.50
2022-10-04T12:44:41.171Z,16.60
2022-10-04T12:48:05.190Z,16.72
2022-10-04T12:51:32.253Z,16.86
2022-10-04T12:54:42.869Z,16.93
2022-10-04T12:58:22.360Z,17.01
2022-10-04T13:01:49.944Z,17.07
2022-10-04T13:04:55.360Z,17.15
2022-10-04T13:08:03.948Z,17.25
2022-10-04T13:11:43.368Z,17.41
2022-10-04T13:15:09.669Z,17.50
2022-10-04T13:18:35.308Z,17.55
2022-10-04T13:21:37.504Z,17.64
2022-10-04T13:25:36.778Z,17.75
2022-10-04T13:29:03.177Z,17.86
2022-10-04T13:32:24.411Z,17.95
2022-10-04T13:35:48.298Z,18.04
2022-10-04T13:39:09.715Z,18.05
2022-10-04T13:42:56.218Z,18.22
2022-10-04T13:46:06.806Z,18.27
2022-10-04T13:49:49.471Z,18.34
2022-10-04T13:53:43.966Z,18.39
2022-10-04T13:57:29.856Z,18.46
2022-10-04T14:01:09.198Z,18.48
2022-10-04T14:04:48.555Z,18.56
2022-10-04T14:08:17.382Z,18.59
2022-10-04T14:11:54.086Z,18.63
2022-10-04T14:15:26.281Z,18.64
2022-10-04T14:18:46.541Z,18.71
2022-10-04T14:22:15.836Z,18.75
2022-10-04T14:25:46.201Z,18.81
2022-10-04T14:29:29.950Z,18.75
2022-10-04T14:33:08.645Z,18.68
2022-10-04T14:36:27.129Z,18.71
2022-10-04T14:39:53.495Z,18.71
2022-10-04T14:43:32.408Z,18.67
2022-10-04T14:47:11.510Z,18.63
2022-10-04T14:50:31.077Z,18.60
2022-10-04T14:53:48.155Z,18.59
2022-10-04T14:57:27.785Z,18.47
2022-10-04T15:00:48.384Z,18.42
2022-10-04T15:04:21.690Z,18.38
2022-10-04T15:07:43.213Z,18.32
2022-10-04T15:11:06.915Z,18.34
2022-10-04T15:14:47.446Z,18.24
2022-10-04T15:17:55.337Z,18.13
2022-10-04T15:21:32.502Z,18.04
2022-10-04T15:24:46.627Z,17.90
2022-10-04T15:27:53.992Z,17.79
2022-10-04T15:31:19.633Z,17.69
2022-10-04T15:34:27.348Z,17.58
2022-10-04T15:37:52.677Z,17.51
2022-10-04T15:41:19.076Z,17.40
2022-10-04T15:44:41.950Z,17.24
2022-10-04T15:48:02.604Z,17.00
2022-10-04T15:51:19.323Z,16.68
2022-10-04T15:54:58.665Z,16.35
2022-10-04T15:58:28.231Z,16.05
2022-10-04T16:02:06.079Z,15.84
2022-10-04T16:05:21.291Z,15.65
2022-10-04T16:08:41.785Z,15.49
2022-10-04T16:12:20.195Z,15.23
2022-10-04T16:15:39.783Z,14.95
2022-10-04T16:19:00.408Z,14.68
2022-10-04T16:22:19.510Z,14.49
2022-10-04T16:25:23.961Z,14.29
2022-10-04T16:28:51.717Z,14.07
2022-10-04T16:32:05.067Z,13.85
2022-10-04T16:35:23.476Z,13.64
2022-10-04T16:38:28.775Z,13.46
2022-10-04T16:41:59.467Z,13.27
2022-10-04T16:45:08.008Z,13.09
2022-10-04T16:48:39.030Z,12.92
2022-10-04T16:52:21.070Z,12.78
2022-10-04T16:55:32.039Z,12.66
2022-10-04T16:58:39.075Z,12.55
2022-10-04T17:02:03.584Z,12.43
2022-10-04T17:05:22.581Z,12.37
2022-10-04T17:08:50.382Z,12.29
2022-10-04T17:12:01.064Z,12.23
2022-10-04T17:15:28.919Z,12.17
2022-10-04T17:18:45.853Z,12.09
2022-10-04T17:22:07.028Z,12.04
2022-10-04T17:25:35.848Z,11.96
2022-10-04T17:28:57.271Z,11.90
2022-10-04T17:32:16.386Z,11.83
2022-10-04T17:35:58.424Z,11.77
2022-10-04T17:39:06.017Z,11.74
2022-10-04T17:42:33.995Z,11.70
2022-10-04T17:45:55.825Z,11.68
2022-10-04T17:49:20.795Z,11.65
2022-10-04T17:52:50.540Z,11.60
2022-10-04T17:56:00.892Z,11.56
2022-10-04T17:59:16.993Z,11.53
2022-10-04T18:02:41.545Z,11.50
2022-10-04T18:05:44.645Z,11.43
2022-10-04T18:08:46.701Z,11.39
2022-10-04T18:12:20.676Z,11.33
2022-10-04T18:15:28.572Z,11.25
2022-10-04T18:18:39.095Z,11.20
2022-10-04T18:21:51.739Z,11.17
2022-10-04T18:25:14.987Z,11.12
2022-10-04T18:28:21.741Z,11.09
2022-10-04T18:31:37.816Z,11.04
2022-10-04T18:34:40.296Z,11.00
2022-10-04T18:37:42.162Z,10.98
2022-10-04T18:40:55.604Z,10.94
2022-10-04T18:44:14.472Z,10.96
2022-10-04T18:47:38.304Z,11.03
2022-10-04T18:50:48.957Z,11.10
2022-10-04T18:54:11.440Z,11.17
2022-10-04T18:57:26.053Z,11.20
2022-10-04T19:01:06.443Z,11.24
2022-10-04T19:04:17.297Z,11.21
2022-10-04T19:07:26.508Z,11.19
2022-10-04T19:11:00.433Z,11.16
2022-10-04T19:14:19.075Z,11.14
2022-10-04T19:18:02.908Z,11.17
2022-10-04T19:21:39.436Z,11.11
2022-10-04T19:24:59.989Z,11.07
2022-10-04T19:28:10.757Z,11.06
2022-10-04T19:31:39.173Z,11.05
2022-10-04T19:34:56.030Z,11.04
2022-10-04T19:38:12.453Z,11.00
2022-10-04T19:41:39.295Z,10.99
2022-10-04T19:45:09.050Z,11.01
2022-10-04T19:48:50.227Z,10.99
2022-10-04T19:52:18.173Z,11.02
2022-10-04T19:55:42.113Z,11.04
2022-10-04T19:58:51.411Z,11.03
2022-10-04T20:01:54.706Z,10.98
2022-10-04T20:04:56.896Z,10.96
2022-10-04T20:08:05.169Z,10.93
2022-10-04T20:11:23.955Z,10.88
2022-10-04T20:14:28.621Z,10.84
2022-10-04T20:17:33.504Z,10.78
2022-10-04T20:20:41.331Z,10.73
2022-10-04T20:23:50.673Z,10.72
2022-10-04T20:26:54.119Z,10.68
2022-10-04T20:30:01.919Z,10.63
2022-10-04T20:33:04.255Z,10.61
2022-10-04T20:36:14.349Z,10.55
2022-10-04T20:39:42.015Z,10.53
2022-10-04T20:42:43.838Z,10.51
2022-10-04T20:45:55.033Z,10.49
2022-10-04T20:48:57.164Z,10.48
2022-10-04T20:51:59.015Z,10.43
2022-10-04T20:55:08.684Z,10.42
2022-10-04T20:58:32.972Z,10.43
2022-10-04T21:01:36.390Z,10.43
2022-10-04T21:04:58.599Z,10.46
2022-10-04T21:08:24.431Z,10.52
2022-10-04T21:11:44.177Z,10.60
2022-10-04T21:15:21.380Z,10.59
2022-10-04T21:18:24.304Z,10.59
2022-10-04T21:21:48.685Z,10.59
2022-10-04T21:24:50.332Z,10.60
2022-10-04T21:27:51.962Z,10.61
2022-10-04T21:30:53.891Z,10.63
2022-10-04T21:33:55.683Z,10.62
2022-10-04T21:36:59.007Z,10.60
2022-10-04T21:40:01.161Z,10.62
2022-10-04T21:43:02.668Z,10.62
2022-10-04T21:46:04.743Z,10.61
2022-10-04T21:49:06.920Z,10.61
2022-10-04T21:52:09.330Z,10.59
2022-10-04T21:55:11.033Z,10.55
2022-10-04T21:58:13.215Z,10.53
2022-10-04T22:01:15.157Z,10.56
2022-10-04T22:04:16.994Z,10.55
2022-10-04T22:07:18.766Z,10.56
2022-10-04T22:10:20.525Z,10.56
2022-10-04T22:13:22.283Z,10.54
2022-10-04T22:16:24.142Z,10.53
2022-10-04T22:19:25.853Z,10.54
2022-10-04T22:22:30.970Z,10.51
2022-10-04T22:25:32.692Z,10.46
2022-10-04T22:28:34.552Z,10.42
2022-10-04T22:31:40.574Z,10.38
2022-10-04T22:34:45.165Z,10.41
2022-10-04T22:37:48.607Z,10.39
2022-10-04T22:40:50.728Z,10.41
2022-10-04T22:43:52.413Z,10.35
2022-10-04T22:46:57.499Z,10.39
2022-10-04T22:49:59.293Z,10.42
2022-10-04T22:53:13.979Z,10.41
2022-10-04T22:56:16.483Z,10.38
2022-10-04T22:59:20.715Z,10.35
2022-10-04T23:02:26.756Z,10.34
2022-10-04T23:05:28.493Z,10.30
2022-10-04T23:08:30.538Z,10.28
2022-10-04T23:11:32.350Z,10.31
2022-10-04T23:14:38.486Z,10.34
2022-10-04T23:17:40.292Z,10.32
2022-10-04T23:20:42.882Z,10.35
2022-10-04T23:23:44.680Z,10.32
2022-10-04T23:26:49.632Z,10.33
2022-10-04T23:30:04.300Z,10.33
2022-10-04T23:33:17.909Z,10.35
2022-10-04T23:36:20.051Z,10.35
2022-10-04T23:39:26.645Z,10.30
2022-10-04T23:42:32.319Z,10.26
2022-10-04T23:45:35.611Z,10.20
2022-10-04T23:48:37.347Z,10.14
2022-10-04T23:51:39.898Z,10.09
2022-10-04T23:54:41.888Z,10.09
2022-10-04T23:57:43.612Z,10.07
